createdAt,value
2018-03-31T00:02:01.095Z,7.80
2018-03-31T00:04:27.634Z,6.37
2018-03-31T00:06:54.214Z,7.93
2018-03-31T00:09:21.129Z,7.20
2018-03-31T00:11:47.775Z,6.85
2018-03-31T00:14:14.603Z,5.90
2018-03-31T00:16:41.192Z,5.93
2018-03-31T00:19:08.086Z,6.15
2018-03-31T00:21:34.931Z,6.35
2018-03-31T00:24:01.776Z,8.80
2018-03-31T00:26:28.619Z,6.97
2018-03-31T00:28:55.193Z,5.77
2018-03-31T00:31:21.803Z,7.12
2018-03-31T00:33:48.639Z,6.40
2018-03-31T00:36:15.210Z,6.22
2018-03-31T00:38:41.799Z,7.12
2018-03-31T00:41:08.364Z,6.20
2018-03-31T00:43:34.985Z,6.37
2018-03-31T00:46:01.830Z,6.50
2018-03-31T00:48:28.440Z,6.57
2018-03-31T00:50:55.015Z,5.82
2018-03-31T00:53:21.951Z,6.47
2018-03-31T00:55:48.790Z,6.10
2018-03-31T00:58:15.361Z,8.80
2018-03-31T01:00:41.934Z,7.25
2018-03-31T01:03:08.806Z,6.80
2018-03-31T01:05:35.655Z,7.50
2018-03-31T01:08:02.496Z,6.20
2018-03-31T01:10:29.081Z,7.80
2018-03-31T01:12:55.638Z,7.70
2018-03-31T01:15:22.235Z,7.05
2018-03-31T01:17:49.146Z,6.62
2018-03-31T01:20:15.767Z,7.22
2018-03-31T01:22:42.334Z,7.80
2018-03-31T01:25:09.162Z,8.85
2018-03-31T01:27:35.781Z,7.85
2018-03-31T01:30:02.346Z,6.20
2018-03-31T01:32:28.936Z,7.80
2018-03-31T01:34:55.505Z,8.30
2018-03-31T01:37:22.357Z,8.90
2018-03-31T01:39:49.201Z,7.67
2018-03-31T01:42:15.836Z,7.07
2018-03-31T01:44:42.389Z,7.55
2018-03-31T01:47:08.983Z,7.95
2018-03-31T01:49:35.863Z,8.17
2018-03-31T01:52:02.702Z,7.30
2018-03-31T01:54:29.302Z,7.07
2018-03-31T01:56:56.187Z,8.02
2018-03-31T01:59:22.770Z,7.50
2018-03-31T02:01:49.375Z,7.20
2018-03-31T02:04:15.999Z,7.63
2018-03-31T02:06:42.586Z,7.50
2018-03-31T02:09:09.479Z,9.50
2018-03-31T02:11:36.318Z,9.50
2018-03-31T02:14:02.886Z,7.55
2018-03-31T02:16:29.434Z,8.17
2018-03-31T02:18:56.026Z,8.05
2018-03-31T02:21:22.628Z,9.20
2018-03-31T02:23:49.509Z,8.65
2018-03-31T02:26:16.459Z,9.90
2018-03-31T02:28:43.298Z,9.30
2018-03-31T02:31:09.892Z,9.35
2018-03-31T02:33:36.508Z,8.57
2018-03-31T02:36:03.074Z,7.20
2018-03-31T02:38:29.661Z,8.90
2018-03-31T02:40:56.601Z,9.30
2018-03-31T02:43:23.166Z,8.00
2018-03-31T02:45:49.751Z,9.00
2018-03-31T02:48:16.334Z,7.78
2018-03-31T02:50:42.885Z,7.63
2018-03-31T02:53:09.495Z,7.35
2018-03-31T02:55:36.083Z,8.13
2018-03-31T02:58:02.629Z,8.27
2018-03-31T03:00:29.223Z,10.77
2018-03-31T03:02:55.789Z,9.85
2018-03-31T03:05:22.572Z,8.20
2018-03-31T03:07:49.431Z,8.40
2018-03-31T03:10:16.015Z,9.80
2018-03-31T03:12:42.611Z,7.90
2018-03-31T03:15:09.151Z,8.70
2018-03-31T03:17:35.526Z,11.50
2018-03-31T03:20:01.870Z,8.45
2018-03-31T03:22:28.234Z,8.60
2018-03-31T03:24:54.594Z,9.63
2018-03-31T03:27:20.933Z,9.60
2018-03-31T03:29:47.304Z,9.50
2018-03-31T03:32:14.060Z,9.68
2018-03-31T03:34:40.393Z,9.82
2018-03-31T03:37:07.031Z,9.05
2018-03-31T03:39:33.670Z,9.98
2018-03-31T03:42:00.302Z,9.32
2018-03-31T03:44:26.675Z,8.80
2018-03-31T03:46:53.036Z,8.38
2018-03-31T03:49:19.713Z,8.35
2018-03-31T03:51:46.042Z,7.82
2018-03-31T03:54:12.674Z,8.43
2018-03-31T03:56:39.036Z,10.02
2018-03-31T03:59:05.396Z,8.20
2018-03-31T04:01:32.087Z,8.55
2018-03-31T04:03:58.717Z,10.65
2018-03-31T04:06:25.353Z,8.80
2018-03-31T04:08:51.755Z,8.10
2018-03-31T04:11:18.431Z,10.23
2018-03-31T04:13:45.062Z,8.25
2018-03-31T04:16:11.456Z,9.93
2018-03-31T04:18:37.819Z,9.77
2018-03-31T04:21:04.471Z,7.90
2018-03-31T04:23:30.833Z,8.68
2018-03-31T04:25:57.202Z,8.67
2018-03-31T04:28:23.534Z,8.52
2018-03-31T04:30:49.939Z,9.65
2018-03-31T04:33:16.540Z,9.43
2018-03-31T04:35:42.894Z,9.70
2018-03-31T04:38:09.324Z,10.20
2018-03-31T04:40:35.665Z,7.70
2018-03-31T04:43:02.014Z,10.90
2018-03-31T04:45:28.702Z,7.80
2018-03-31T04:47:55.083Z,9.32
2018-03-31T04:50:21.671Z,8.52
2018-03-31T04:52:48.034Z,7.28
2018-03-31T04:55:14.663Z,8.40
2018-03-31T04:57:41.223Z,6.77
2018-03-31T05:00:07.622Z,8.95
2018-03-31T05:02:33.986Z,7.55
2018-03-31T05:05:00.322Z,8.43
2018-03-31T05:07:26.677Z,7.80
2018-03-31T05:09:53.052Z,9.52
2018-03-31T05:12:19.425Z,12.35
2018-03-31T05:14:45.760Z,7.22
2018-03-31T05:17:12.441Z,7.68
2018-03-31T05:19:39.186Z,8.63
2018-03-31T05:22:05.519Z,10.25
2018-03-31T05:24:31.923Z,8.15
2018-03-31T05:26:58.288Z,9.15
2018-03-31T05:29:24.913Z,7.57
2018-03-31T05:31:51.277Z,7.55
2018-03-31T05:34:17.622Z,8.10
2018-03-31T05:36:43.993Z,9.00
2018-03-31T05:39:10.338Z,8.57
2018-03-31T05:41:36.706Z,9.20
2018-03-31T05:44:03.061Z,9.13
2018-03-31T05:46:29.642Z,8.52
2018-03-31T05:48:56.274Z,9.07
2018-03-31T05:51:22.922Z,8.43
2018-03-31T05:53:49.563Z,10.43
2018-03-31T05:56:15.918Z,8.20
2018-03-31T05:58:42.525Z,9.02
2018-03-31T06:01:08.902Z,12.10
2018-03-31T06:03:35.552Z,8.98
2018-03-31T06:06:01.884Z,8.98
2018-03-31T06:08:28.271Z,8.35
2018-03-31T06:10:54.601Z,8.55
2018-03-31T06:13:20.995Z,8.02
2018-03-31T06:15:47.674Z,7.85
2018-03-31T06:18:14.041Z,8.10
2018-03-31T06:20:40.407Z,7.50
2018-03-31T06:23:06.766Z,9.20
2018-03-31T06:25:33.135Z,8.15
2018-03-31T06:27:59.506Z,7.00
2018-03-31T06:30:25.911Z,9.15
2018-03-31T06:32:52.275Z,6.68
2018-03-31T06:35:18.938Z,7.60
2018-03-31T06:37:45.286Z,6.82
2018-03-31T06:40:11.665Z,8.35
2018-03-31T06:42:38.024Z,7.50
2018-03-31T06:45:04.662Z,7.05
2018-03-31T06:47:31.054Z,8.48
2018-03-31T06:49:57.433Z,8.30
2018-03-31T06:52:23.786Z,6.75
2018-03-31T06:54:50.121Z,8.75
2018-03-31T06:57:16.739Z,8.18
2018-03-31T06:59:43.475Z,7.70
2018-03-31T07:02:09.839Z,7.20
2018-03-31T07:04:36.207Z,8.37
2018-03-31T07:07:02.561Z,7.00
2018-03-31T07:09:28.902Z,8.10
2018-03-31T07:11:55.246Z,6.32
2018-03-31T07:14:21.666Z,7.03
2018-03-31T07:16:48.023Z,7.22
2018-03-31T07:19:14.361Z,7.72
2018-03-31T07:21:41.067Z,10.90
2018-03-31T07:24:07.456Z,6.70
2018-03-31T07:26:34.959Z,8.63
2018-03-31T07:29:01.566Z,7.80
2018-03-31T07:31:27.948Z,7.50
2018-03-31T07:33:54.363Z,8.75
2018-03-31T07:36:20.754Z,7.60
2018-03-31T07:38:47.133Z,8.60
2018-03-31T07:41:13.767Z,8.70
2018-03-31T07:43:40.112Z,7.62
2018-03-31T07:46:06.766Z,7.82
2018-03-31T07:48:33.097Z,7.28
2018-03-31T07:50:59.468Z,7.30
2018-03-31T07:53:25.848Z,7.15
2018-03-31T07:55:52.466Z,34.23
2018-03-31T07:58:19.212Z,13.38
2018-03-31T08:00:45.584Z,7.15
2018-03-31T08:03:12.184Z,8.33
2018-03-31T08:05:38.571Z,8.85
2018-03-31T08:08:04.939Z,9.30
2018-03-31T08:10:31.328Z,9.70
2018-03-31T08:12:57.692Z,9.17
2018-03-31T08:15:24.031Z,7.80
2018-03-31T08:17:50.679Z,8.20
2018-03-31T08:20:17.245Z,8.93
2018-03-31T08:22:43.618Z,10.20
2018-03-31T08:25:09.970Z,10.30
2018-03-31T08:27:36.346Z,8.38
2018-03-31T08:30:02.738Z,12.80
2018-03-31T08:32:29.093Z,9.63
2018-03-31T08:34:55.487Z,8.48
2018-03-31T08:37:21.851Z,10.00
2018-03-31T08:39:48.189Z,9.65
2018-03-31T08:42:14.576Z,8.98
2018-03-31T08:44:40.908Z,11.10
2018-03-31T08:47:07.300Z,9.32
2018-03-31T08:49:33.911Z,9.23
2018-03-31T08:52:00.547Z,11.10
2018-03-31T08:54:26.944Z,10.30
2018-03-31T08:56:53.315Z,11.48
2018-03-31T08:59:20.054Z,11.68
2018-03-31T09:01:46.691Z,12.65
2018-03-31T09:04:13.032Z,11.90
2018-03-31T09:06:39.394Z,14.38
2018-03-31T09:09:06.150Z,18.37
2018-03-31T09:11:32.515Z,16.05
2018-03-31T09:13:58.866Z,12.77
2018-03-31T09:16:25.262Z,13.52
2018-03-31T09:18:51.931Z,14.27
2018-03-31T09:21:18.320Z,13.70
2018-03-31T09:23:44.681Z,14.13
2018-03-31T09:26:11.341Z,14.15
2018-03-31T09:28:37.676Z,12.35
2018-03-31T09:31:04.063Z,13.73
2018-03-31T09:33:30.436Z,14.57
2018-03-31T09:35:56.823Z,13.30
2018-03-31T09:38:23.394Z,14.57
2018-03-31T09:40:50.040Z,12.73
2018-03-31T09:43:16.397Z,13.00
2018-03-31T09:45:42.790Z,13.30
2018-03-31T09:48:09.163Z,14.07
2018-03-31T09:50:35.721Z,12.43
2018-03-31T09:53:02.111Z,14.15
2018-03-31T09:55:28.501Z,13.52
2018-03-31T09:57:55.175Z,12.60
2018-03-31T10:00:21.582Z,12.48
2018-03-31T10:02:47.941Z,17.10
2018-03-31T10:05:14.294Z,14.80
2018-03-31T10:07:40.662Z,13.07
2018-03-31T10:10:07.009Z,14.30
2018-03-31T10:12:33.418Z,15.25
2018-03-31T10:15:00.001Z,16.23
2018-03-31T10:17:26.342Z,13.62
2018-03-31T10:19:52.731Z,15.30
2018-03-31T10:22:19.078Z,13.43
2018-03-31T10:24:45.715Z,13.40
2018-03-31T10:27:12.387Z,14.07
2018-03-31T10:29:38.750Z,13.00
2018-03-31T10:32:06.143Z,12.82
2018-03-31T10:34:32.806Z,13.48
2018-03-31T10:36:59.208Z,11.80
2018-03-31T10:39:25.778Z,13.13
2018-03-31T10:41:52.148Z,14.03
2018-03-31T10:44:18.742Z,11.70
2018-03-31T10:46:45.081Z,11.97
2018-03-31T10:49:11.454Z,13.68
2018-03-31T10:51:38.042Z,14.15
2018-03-31T10:54:04.393Z,14.50
2018-03-31T10:56:30.756Z,13.00
2018-03-31T10:58:57.097Z,14.70
2018-03-31T11:01:23.515Z,14.00
2018-03-31T11:03:50.113Z,14.80
2018-03-31T11:06:16.531Z,15.05
2018-03-31T11:08:42.985Z,15.35
2018-03-31T11:11:09.371Z,15.80
2018-03-31T11:13:35.738Z,17.12
2018-03-31T11:16:02.124Z,15.85
2018-03-31T11:18:28.495Z,15.68
2018-03-31T11:20:55.146Z,17.33
2018-03-31T11:23:21.496Z,16.30
2018-03-31T11:25:47.903Z,16.17
2018-03-31T11:28:14.547Z,17.87
2018-03-31T11:30:40.943Z,17.03
2018-03-31T11:33:07.618Z,16.30
2018-03-31T11:35:33.968Z,16.75
2018-03-31T11:38:00.696Z,15.93
2018-03-31T11:40:27.064Z,15.90
2018-03-31T11:42:53.409Z,15.88
2018-03-31T11:45:19.761Z,19.85
2018-03-31T11:47:46.338Z,20.42
2018-03-31T11:50:12.972Z,19.37
2018-03-31T11:52:39.606Z,17.73
2018-03-31T11:55:06.243Z,17.33
2018-03-31T11:57:32.875Z,17.75
2018-03-31T11:59:59.541Z,19.48
2018-03-31T12:02:25.889Z,16.93
2018-03-31T12:04:52.234Z,18.95
2018-03-31T12:07:18.623Z,17.92
2018-03-31T12:09:45.430Z,15.88
2018-03-31T12:12:11.839Z,18.73
2018-03-31T12:14:38.260Z,14.45
2018-03-31T12:17:04.863Z,18.50
2018-03-31T12:19:31.493Z,15.65
2018-03-31T12:21:57.883Z,15.57
2018-03-31T12:24:24.255Z,18.90
2018-03-31T12:26:50.894Z,17.40
2018-03-31T12:29:17.279Z,17.85
2018-03-31T12:31:43.655Z,19.92
2018-03-31T12:34:10.047Z,15.90
2018-03-31T12:36:36.443Z,17.67
2018-03-31T12:39:02.817Z,17.17
2018-03-31T12:41:29.173Z,18.85
2018-03-31T12:43:55.545Z,22.30
2018-03-31T12:46:22.136Z,17.02
2018-03-31T12:48:48.533Z,18.83
2018-03-31T12:51:14.905Z,20.17
2018-03-31T12:53:41.303Z,37.23
2018-03-31T12:56:08.042Z,18.95
2018-03-31T12:58:34.374Z,17.60
2018-03-31T13:01:00.767Z,21.55
2018-03-31T13:03:27.144Z,16.30
2018-03-31T13:05:53.531Z,18.62
2018-03-31T13:08:21.272Z,17.98
2018-03-31T13:10:49.464Z,17.87
2018-03-31T13:13:15.797Z,18.92
2018-03-31T13:15:42.434Z,19.12
2018-03-31T13:18:08.784Z,19.50
2018-03-31T13:20:35.192Z,17.67
2018-03-31T13:23:01.582Z,17.42
2018-03-31T13:25:27.927Z,20.33
2018-03-31T13:27:54.607Z,16.42
2018-03-31T13:30:20.983Z,20.20
2018-03-31T13:32:47.680Z,19.17
2018-03-31T13:35:14.043Z,17.70
2018-03-31T13:37:40.378Z,16.23
2018-03-31T13:40:06.758Z,15.93
2018-03-31T13:42:33.409Z,16.90
2018-03-31T13:44:59.983Z,18.15
2018-03-31T13:47:26.371Z,16.23
2018-03-31T13:49:53.017Z,14.90
2018-03-31T13:52:19.392Z,14.13
2018-03-31T13:54:45.986Z,13.98
2018-03-31T13:57:12.621Z,15.82
2018-03-31T13:59:39.020Z,15.32
2018-03-31T14:02:05.395Z,15.93
2018-03-31T14:04:31.758Z,16.50
2018-03-31T14:06:58.131Z,16.35
2018-03-31T14:09:24.505Z,24.33
2018-03-31T14:11:50.834Z,12.63
2018-03-31T14:14:17.193Z,15.35
2018-03-31T14:16:43.596Z,17.58
2018-03-31T14:19:09.979Z,13.93
2018-03-31T14:21:36.677Z,15.60
2018-03-31T14:24:03.051Z,15.37
2018-03-31T14:26:29.633Z,13.48
2018-03-31T14:28:56.258Z,14.38
2018-03-31T14:31:22.908Z,12.88
2018-03-31T14:33:49.258Z,13.30
2018-03-31T14:36:15.644Z,11.30
2018-03-31T14:38:41.989Z,11.10
2018-03-31T14:41:08.465Z,11.20
2018-03-31T14:43:34.799Z,13.00
2018-03-31T14:46:01.155Z,12.67
2018-03-31T14:48:27.540Z,13.02
2018-03-31T14:50:53.919Z,10.67
2018-03-31T14:53:20.593Z,10.90
2018-03-31T14:55:46.980Z,12.50
2018-03-31T14:58:13.675Z,11.73
2018-03-31T15:00:40.022Z,9.77
2018-03-31T15:03:06.649Z,10.60
2018-03-31T15:05:33.274Z,9.57
2018-03-31T15:07:59.622Z,10.05
2018-03-31T15:10:25.995Z,10.95
2018-03-31T15:12:52.678Z,12.00
2018-03-31T15:15:19.030Z,10.30
2018-03-31T15:17:45.406Z,19.15
2018-03-31T15:20:11.779Z,37.83
2018-03-31T15:22:38.130Z,12.57
2018-03-31T15:25:04.519Z,16.77
2018-03-31T15:27:30.888Z,19.60
2018-03-31T15:29:57.279Z,21.13
2018-03-31T15:32:23.618Z,22.65
2018-03-31T15:34:50.333Z,12.60
2018-03-31T15:37:16.717Z,10.18
2018-03-31T15:39:43.092Z,7.50
2018-03-31T15:42:09.474Z,8.75
2018-03-31T15:44:35.814Z,8.93
2018-03-31T15:47:02.170Z,9.77
2018-03-31T15:49:28.526Z,10.02
2018-03-31T15:51:54.879Z,10.13
2018-03-31T15:54:21.252Z,10.50
2018-03-31T15:56:47.613Z,9.32
2018-03-31T15:59:13.949Z,7.97
2018-03-31T16:01:40.331Z,8.70
2018-03-31T16:04:06.927Z,8.70
2018-03-31T16:06:33.293Z,7.80
2018-03-31T16:08:59.655Z,8.77
2018-03-31T16:11:26.039Z,10.30
2018-03-31T16:13:52.394Z,21.10
2018-03-31T16:16:19.041Z,12.77
2018-03-31T16:18:45.435Z,12.70
2018-03-31T16:21:12.103Z,9.43
2018-03-31T16:23:38.474Z,11.93
2018-03-31T16:26:04.828Z,10.00
2018-03-31T16:28:31.511Z,10.38
2018-03-31T16:30:57.926Z,9.80
2018-03-31T16:33:24.352Z,8.95
2018-03-31T16:35:50.723Z,10.73
2018-03-31T16:38:17.112Z,10.52
2018-03-31T16:40:43.530Z,11.80
2018-03-31T16:43:09.926Z,11.27
2018-03-31T16:45:36.295Z,11.70
2018-03-31T16:48:03.072Z,11.18
2018-03-31T16:50:29.461Z,11.12
2018-03-31T16:52:55.828Z,11.43
2018-03-31T16:55:22.190Z,10.50
2018-03-31T16:57:48.643Z,10.00
2018-03-31T17:00:15.095Z,11.05
2018-03-31T17:02:41.445Z,11.00
2018-03-31T17:05:07.793Z,10.43
2018-03-31T17:07:34.331Z,10.15
2018-03-31T17:10:00.668Z,9.75
2018-03-31T17:12:27.315Z,10.00
2018-03-31T17:14:53.955Z,11.48
2018-03-31T17:17:20.350Z,10.45
2018-03-31T17:19:46.749Z,10.23
2018-03-31T17:22:13.115Z,12.13
2018-03-31T17:24:39.481Z,9.40
2018-03-31T17:27:05.966Z,10.05
2018-03-31T17:29:32.552Z,9.27
2018-03-31T17:31:58.924Z,10.15
2018-03-31T17:34:25.632Z,10.18
2018-03-31T17:36:52.045Z,9.80
2018-03-31T17:39:18.375Z,9.20
2018-03-31T17:41:45.029Z,9.30
2018-03-31T17:44:11.668Z,9.55
2018-03-31T17:46:38.002Z,10.65
2018-03-31T17:49:04.693Z,10.52
2018-03-31T17:51:31.006Z,10.57
2018-03-31T17:53:57.643Z,10.20
2018-03-31T17:56:24.039Z,8.80
2018-03-31T17:58:50.411Z,11.52
2018-03-31T18:01:16.742Z,9.40
2018-03-31T18:03:43.208Z,10.37
2018-03-31T18:06:09.918Z,11.10
2018-03-31T18:08:36.307Z,11.10
2018-03-31T18:11:02.642Z,9.80
2018-03-31T18:13:29.080Z,10.10
2018-03-31T18:15:55.436Z,11.00
2018-03-31T18:18:22.048Z,12.80
2018-03-31T18:20:48.406Z,10.77
2018-03-31T18:23:14.869Z,9.98
2018-03-31T18:25:41.240Z,9.10
2018-03-31T18:28:07.878Z,9.63
2018-03-31T18:30:34.211Z,9.48
2018-03-31T18:33:00.574Z,9.98
2018-03-31T18:35:26.943Z,7.80
2018-03-31T18:37:53.619Z,10.13
2018-03-31T18:40:20.033Z,8.60
2018-03-31T18:42:46.682Z,7.60
2018-03-31T18:45:13.092Z,8.45
2018-03-31T18:47:39.766Z,8.85
2018-03-31T18:50:06.139Z,7.55
2018-03-31T18:52:32.727Z,9.93
2018-03-31T18:54:59.107Z,7.50
2018-03-31T18:57:25.466Z,8.95
2018-03-31T18:59:51.844Z,11.23
2018-03-31T19:02:18.212Z,8.63
2018-03-31T19:04:44.568Z,9.88
2018-03-31T19:07:10.942Z,8.23
2018-03-31T19:09:37.396Z,9.43
2018-03-31T19:12:03.992Z,10.82
2018-03-31T19:14:30.363Z,8.27
2018-03-31T19:16:56.836Z,8.80
2018-03-31T19:19:23.497Z,8.73
2018-03-31T19:21:49.892Z,7.60
2018-03-31T19:24:16.571Z,7.50
2018-03-31T19:26:42.954Z,7.05
2018-03-31T19:29:09.643Z,7.97
2018-03-31T19:31:36.284Z,7.15
2018-03-31T19:34:02.675Z,7.20
2018-03-31T19:36:29.355Z,6.65
2018-03-31T19:38:55.762Z,6.40
2018-03-31T19:41:22.129Z,6.53
2018-03-31T19:43:48.751Z,8.68
2018-03-31T19:46:15.166Z,6.35
2018-03-31T19:48:41.506Z,8.02
2018-03-31T19:51:07.911Z,6.20
2018-03-31T19:53:34.486Z,7.55
2018-03-31T19:56:01.131Z,9.68
2018-03-31T19:58:27.482Z,7.70
2018-03-31T20:00:53.831Z,8.23
2018-03-31T20:03:20.208Z,6.47
2018-03-31T20:05:46.575Z,6.37
2018-03-31T20:08:13.302Z,6.47
2018-03-31T20:10:39.703Z,5.95
2018-03-31T20:13:06.067Z,4.35
2018-03-31T20:15:32.469Z,4.68
2018-03-31T20:17:58.832Z,4.47
2018-03-31T20:20:25.177Z,4.20
2018-03-31T20:22:51.528Z,4.00
2018-03-31T20:25:17.911Z,4.00
2018-03-31T20:27:44.306Z,4.10
2018-03-31T20:30:10.641Z,4.30
2018-03-31T20:32:36.978Z,4.03
2018-03-31T20:35:03.658Z,4.20
2018-03-31T20:37:30.032Z,3.80
2018-03-31T20:39:56.439Z,3.92
2018-03-31T20:42:22.781Z,3.50
2018-03-31T20:44:49.135Z,3.95
2018-03-31T20:47:15.819Z,5.20
2018-03-31T20:49:42.193Z,4.87
2018-03-31T20:52:08.553Z,13.00
2018-03-31T20:54:34.907Z,5.10
2018-03-31T20:57:01.563Z,4.60
2018-03-31T20:59:28.194Z,5.23
2018-03-31T21:01:54.546Z,6.62
2018-03-31T21:04:20.944Z,6.00
2018-03-31T21:06:47.282Z,4.93
2018-03-31T21:09:13.925Z,4.83
2018-03-31T21:11:40.295Z,4.50
2018-03-31T21:14:06.897Z,4.10
2018-03-31T21:16:33.647Z,4.23
2018-03-31T21:19:00.019Z,4.30
2018-03-31T21:21:26.402Z,3.83
2018-03-31T21:23:52.761Z,4.10
2018-03-31T21:26:19.145Z,5.10
2018-03-31T21:28:45.514Z,4.20
2018-03-31T21:31:11.861Z,3.90
2018-03-31T21:33:38.239Z,7.10
2018-03-31T21:36:04.586Z,3.70
2018-03-31T21:38:30.935Z,3.70
2018-03-31T21:40:57.566Z,3.70
2018-03-31T21:43:24.206Z,4.10
2018-03-31T21:45:50.575Z,3.90
2018-03-31T21:48:16.933Z,4.40
2018-03-31T21:50:43.299Z,4.25
2018-03-31T21:53:09.943Z,3.90
2018-03-31T21:55:36.581Z,3.72
2018-03-31T21:58:02.934Z,4.50
2018-03-31T22:00:29.323Z,3.72
2018-03-31T22:02:55.873Z,4.00
2018-03-31T22:05:22.519Z,3.90
2018-03-31T22:07:49.157Z,3.80
2018-03-31T22:10:15.531Z,3.80
2018-03-31T22:12:42.228Z,3.60
2018-03-31T22:15:08.561Z,3.60
2018-03-31T22:17:34.906Z,3.70
2018-03-31T22:20:01.266Z,3.80
2018-03-31T22:22:27.606Z,3.60
2018-03-31T22:24:53.984Z,3.42
2018-03-31T22:27:20.622Z,3.25
2018-03-31T22:29:47.003Z,3.90
2018-03-31T22:32:13.340Z,3.80
2018-03-31T22:34:40.034Z,3.83
2018-03-31T22:37:06.365Z,3.80
2018-03-31T22:39:32.748Z,3.70
2018-03-31T22:41:59.432Z,4.30
2018-03-31T22:44:25.789Z,4.40
2018-03-31T22:46:52.408Z,3.90
2018-03-31T22:49:18.803Z,4.12
2018-03-31T22:51:45.172Z,4.05
2018-03-31T22:54:11.801Z,4.20
2018-03-31T22:56:38.443Z,3.92
2018-03-31T22:59:04.782Z,3.70
2018-03-31T23:01:31.405Z,4.10
2018-03-31T23:03:57.978Z,4.40
2018-03-31T23:06:24.538Z,3.62
2018-03-31T23:08:51.111Z,3.70
2018-03-31T23:11:17.966Z,3.28
2018-03-31T23:13:44.541Z,3.30
2018-03-31T23:16:11.120Z,3.50
2018-03-31T23:18:38.001Z,3.47
2018-03-31T23:21:04.542Z,3.70
2018-03-31T23:23:31.121Z,3.10
2018-03-31T23:25:57.676Z,4.00
2018-03-31T23:28:24.539Z,3.42
2018-03-31T23:30:51.082Z,3.90
2018-03-31T23:33:17.661Z,3.83
2018-03-31T23:35:44.206Z,4.10
2018-03-31T23:38:10.575Z,4.40
2018-03-31T23:40:36.970Z,4.55
2018-03-31T23:43:03.330Z,4.63
2018-03-31T23:45:29.665Z,5.03
2018-03-31T23:47:56.062Z,5.20
2018-03-31T23:50:22.428Z,6.05
2018-03-31T23:52:48.822Z,5.87
2018-03-31T23:55:15.211Z,5.50
2018-03-31T23:57:41.555Z,5.40
